Latest METARs, TAFs and NOTAMs for LIML


---------------------------------------------------------------------------
	(OBSERVATIONS)
Sorry, no metar available for LIML
---------------------------------------------------------------------------
	(FC)
Sorry, FC For LIML Not Found
---------------------------------------------------------------------------
	(TERMINAL AREA FORECAST)
LIML 151700Z 1518/1618 VRB05KT 9999 FEW040=
---------------------------------------------------------------------------
	(NOTAMS)


Sorry, no NOTAM available for LIML
---------------------------------------------------------------------------